ADDS METAR Data INFO
IDs: Format: Raw Decoded Include TAF

Data at: 1847 UTC 16 Dec 2017

KARA 161753Z 06010KT 10SM CLR 14/M01 A3022 RMK AO2 SLP233 T01391006 10139 20072 58019
KARA 161653Z 09012KT 10SM CLR 12/M01 A3026 RMK AO2 SLP244 T01221006
KARA 161553Z 06007KT 10SM CLR 11/00 A3029 RMK AO2 SLP255 T01060000
KARA 161453Z 07008KT 10SM SCT090 BKN110 08/01 A3028 RMK AO2 SLP252 T00780006 50007
KARA 161353Z 06006KT 10SM BKN085 OVC110 07/01 A3028 RMK AO2 SLP253 T00720011
KARA 161253Z 07007KT 10SM OVC080 07/01 A3028 RMK AO2 SLP252 T00720006
KARA 161153Z 05005KT 10SM OVC080 07/01 A3026 RMK AO2 SLP245 70003 T00720011 10072 20061 53000
KARA 161053Z AUTO 05005KT 10SM OVC085 07/01 A3025 RMK AO2 SLP243 T00670011
KARA 160953Z AUTO 03007KT 10SM OVC090 07/01 A3026 RMK AO2 SLP244 T00670011
KARA 160853Z AUTO 04007KT 10SM BKN110 07/01 A3026 RMK AO2 SLP245 T00670011 58008
KARA 160753Z AUTO 04005KT 10SM BKN110 07/01 A3026 RMK AO2 SLP247 T00670011
KARA 160653Z AUTO 02004KT 10SM BKN120 07/01 A3028 RMK AO2 SLP251 T00670011
KARA 160553Z AUTO 36005KT 10SM CLR 06/01 A3028 RMK AO2 SLP253 T00610011 10083 20061 401110061 58004
KARA 160453Z AUTO 02004KT 10SM FEW120 07/01 A3030 RMK AO2 SLP258 T00720011
KARA 160353Z AUTO 01004KT 10SM CLR 07/02 A3029 RMK AO2 SLP256 T00720017
KARA 160253Z 35005KT 10SM FEW110 08/02 A3029 RMK AO2 SLP257 T00780022 51020
KARA 160153Z 33003KT 10SM CLR 08/02 A3028 RMK AO2 SLP253 T00780017
KARA 160053Z 00000KT 10SM CLR 08/01 A3025 RMK AO2 SLP244 T00830011
KARA 152353Z 01005KT 10SM CLR 08/01 A3023 RMK AO2 SLP237 60002 T00830011 10094 20078 53005
KARA 152253Z 01005KT 10SM CLR 08/01 A3022 RMK AO2 RAE00 SLP233 P0000 T00830011
KARA 152153Z 02007KT 10SM -RA BKN085 OVC110 09/02 A3022 RMK AO2 RAE09B38 SLP233 P0000 T00890017
KARA 152053Z 36009KT 10SM -RA FEW070 SCT080 OVC110 09/02 A3022 RMK AO2 RAE23B52 SLP233 P0000 60002 T00890017 58007
KARA 151953Z 35007KT 10SM -RA OVC100 08/03 A3023 RMK AO2 SLP235 P0000 T00830028
KARA 151853Z 34007KT 10SM -RA OVC100 08/02 A3026 RMK AO2 SLP245 P0002 T00830022
KARA 151753Z 03011KT 10SM -RA OVC100 08/02 A3024 RMK AO2 RAB1657 SLP240 P0000 60001 T00830017 10094 20083 58005
KARA 151653Z 01011KT 10SM SCT080 OVC095 09/01 A3029 RMK AO2 RAB19E31 SLP255 P0000 T00940011
KARA 151553Z 01011KT 10SM FEW034 FEW085 BKN110 09/02 A3028 RMK AO2 RAE38 SLP254 P0001 T00890022
KARA 151453Z 02009KT 10SM -RA OVC095 08/02 A3026 RMK AO2 RAB1357E08B33 PRESRR SLP245 P0000 60000 T00830022 53046
KARA 151353Z 01010KT 10SM OVC100 09/02 A3020 RMK AO2 SLP226 T00890022
KARA 151253Z 02011KT 10SM OVC110 09/03 A3015 RMK AO2 SLP210 T00890028
KARA 151153Z 02011KT 10SM CLR 09/03 A3012 RMK AO2 SLP199 T00940028 10111 20094 53012
KARA 151053Z AUTO 02010KT 10SM CLR 09/04 A3010 RMK AO2 SLP190 T00940039
KARA 150953Z AUTO 02008KT 10SM CLR 10/04 A3008 RMK AO2 SLP187 T01000044
KARA 150853Z AUTO 36007KT 10SM CLR 10/04 A3009 RMK AO2 SLP187 T01000044 51008
KARA 150753Z AUTO 01007KT 10SM CLR 11/05 A3008 RMK AO2 SLP184 T01060050
KARA 150653Z AUTO 01006KT 10SM BKN045 11/06 A3007 RMK AO2 SLP183 T01110056